sensor_id;sensor_type;location;lat;lon;timestamp;pressure;altitude;pressure_sealevel;temperature;humidity
3096;BME280;1558;42.700;23.360;2023-05-23T00:00:06;95205.28;;;11.72;100.00
3096;BME280;1558;42.700;23.360;2023-05-23T00:02:34;95192.09;;;11.70;100.00
3096;BME280;1558;42.700;23.360;2023-05-23T00:05:04;95195.00;;;11.65;100.00
3096;BME280;1558;42.700;23.360;2023-05-23T00:07:34;95206.50;;;11.62;100.00
3096;BME280;1558;42.700;23.360;2023-05-23T00:10:02;95199.19;;;11.63;100.00
3096;BME280;1558;42.700;23.360;2023-05-23T00:12:30;95201.88;;;11.63;100.00
3096;BME280;1558;42.700;23.360;2023-05-23T00:14:59;95194.91;;;11.62;100.00
3096;BME280;1558;42.700;23.360;2023-05-23T00:17:28;95197.84;;;11.56;100.00
3096;BME280;1558;42.700;23.360;2023-05-23T00:19:56;95191.31;;;11.57;100.00
3096;BME280;1558;42.700;23.360;2023-05-23T00:22:24;95196.38;;;11.59;100.00
3096;BME280;1558;42.700;23.360;2023-05-23T00:24:54;95196.38;;;11.59;100.00
3096;BME280;1558;42.700;23.360;2023-05-23T00:27:23;95203.03;;;11.49;100.00
3096;BME280;1558;42.700;23.360;2023-05-23T00:29:51;95200.47;;;11.41;100.00
3096;BME280;1558;42.700;23.360;2023-05-23T00:32:19;95200.78;;;11.39;100.00
3096;BME280;1558;42.700;23.360;2023-05-23T00:34:47;95191.88;;;11.39;100.00
3096;BME280;1558;42.700;23.360;2023-05-23T00:37:15;95195.72;;;11.38;100.00
3096;BME280;1558;42.700;23.360;2023-05-23T00:39:43;95195.16;;;11.32;100.00
3096;BME280;1558;42.700;23.360;2023-05-23T00:42:13;95197.75;;;11.29;100.00
3096;BME280;1558;42.700;23.360;2023-05-23T00:44:41;95196.19;;;11.28;100.00
3096;BME280;1558;42.700;23.360;2023-05-23T00:47:09;95188.06;;;11.28;100.00
3096;BME280;1558;42.700;23.360;2023-05-23T00:49:39;95186.72;;;11.34;100.00
3096;BME280;1558;42.700;23.360;2023-05-23T00:52:07;95188.28;;;11.35;100.00
3096;BME280;1558;42.700;23.360;2023-05-23T00:54:36;95186.16;;;11.28;100.00
3096;BME280;1558;42.700;23.360;2023-05-23T00:57:06;95196.19;;;11.28;100.00
3096;BME280;1558;42.700;23.360;2023-05-23T00:59:36;95192.91;;;11.22;100.00
3096;BME280;1558;42.700;23.360;2023-05-23T01:02:05;95198.31;;;11.22;100.00
3096;BME280;1558;42.700;23.360;2023-05-23T01:04:34;95204.84;;;11.21;100.00
3096;BME280;1558;42.700;23.360;2023-05-23T01:07:03;95198.19;;;11.19;100.00
3096;BME280;1558;42.700;23.360;2023-05-23T01:09:31;95199.66;;;11.16;100.00
3096;BME280;1558;42.700;23.360;2023-05-23T01:12:24;95206.63;;;11.17;100.00
3096;BME280;1558;42.700;23.360;2023-05-23T01:15:03;95202.38;;;11.16;100.00
3096;BME280;1558;42.700;23.360;2023-05-23T01:17:40;95189.53;;;11.13;100.00
3096;BME280;1558;42.700;23.360;2023-05-23T01:20:13;95196.72;;;11.09;100.00
3096;BME280;1558;42.700;23.360;2023-05-23T01:22:59;95195.28;;;11.00;100.00
3096;BME280;1558;42.700;23.360;2023-05-23T01:25:46;95203.16;;;11.05;100.00
3096;BME280;1558;42.700;23.360;2023-05-23T01:28:19;95204.59;;;11.02;100.00
3096;BME280;1558;42.700;23.360;2023-05-23T01:30:50;95196.06;;;11.00;100.00
3096;BME280;1558;42.700;23.360;2023-05-23T01:33:19;95195.72;;;11.02;100.00
3096;BME280;1558;42.700;23.360;2023-05-23T01:35:47;95199.66;;;11.04;100.00
3096;BME280;1558;42.700;23.360;2023-05-23T01:38:16;95205.41;;;11.03;100.00
3096;BME280;1558;42.700;23.360;2023-05-23T01:40:44;95195.84;;;11.05;100.00
3096;BME280;1558;42.700;23.360;2023-05-23T01:43:12;95195.94;;;11.09;100.00
3096;BME280;1558;42.700;23.360;2023-05-23T01:45:42;95193.16;;;11.05;100.00
3096;BME280;1558;42.700;23.360;2023-05-23T01:48:11;95188.63;;;10.97;100.00
3096;BME280;1558;42.700;23.360;2023-05-23T01:50:41;95181.66;;;10.96;100.00
3096;BME280;1558;42.700;23.360;2023-05-23T01:53:11;95181.31;;;10.98;100.00
3096;BME280;1558;42.700;23.360;2023-05-23T01:55:41;95183.69;;;10.99;100.00
3096;BME280;1558;42.700;23.360;2023-05-23T01:58:10;95184.56;;;11.03;100.00
3096;BME280;1558;42.700;23.360;2023-05-23T02:00:39;95182.22;;;11.02;100.00
3096;BME280;1558;42.700;23.360;2023-05-23T02:03:08;95188.63;;;10.85;100.00
3096;BME280;1558;42.700;23.360;2023-05-23T02:05:37;95186.09;;;10.68;100.00
3096;BME280;1558;42.700;23.360;2023-05-23T02:08:06;95192.50;;;10.63;100.00
3096;BME280;1558;42.700;23.360;2023-05-23T02:10:34;95194.53;;;10.66;100.00
3096;BME280;1558;42.700;23.360;2023-05-23T02:13:02;95189.94;;;10.67;100.00
3096;BME280;1558;42.700;23.360;2023-05-23T02:15:31;95197.34;;;10.70;100.00
3096;BME280;1558;42.700;23.360;2023-05-23T02:17:59;95186.56;;;10.70;100.00
3096;BME280;1558;42.700;23.360;2023-05-23T02:20:29;95188.34;;;10.66;100.00
3096;BME280;1558;42.700;23.360;2023-05-23T02:22:57;95187.69;;;10.69;100.00
3096;BME280;1558;42.700;23.360;2023-05-23T02:25:25;95192.19;;;10.65;100.00
3096;BME280;1558;42.700;23.360;2023-05-23T02:27:53;95192.41;;;10.60;100.00
3096;BME280;1558;42.700;23.360;2023-05-23T02:30:21;95185.41;;;10.59;100.00
3096;BME280;1558;42.700;23.360;2023-05-23T02:32:49;95182.63;;;10.55;100.00
3096;BME280;1558;42.700;23.360;2023-05-23T02:35:17;95190.34;;;10.57;100.00
3096;BME280;1558;42.700;23.360;2023-05-23T02:37:47;95182.13;;;10.53;100.00
3096;BME280;1558;42.700;23.360;2023-05-23T02:40:15;95183.06;;;10.57;100.00
3096;BME280;1558;42.700;23.360;2023-05-23T02:42:43;95180.88;;;10.51;100.00
3096;BME280;1558;42.700;23.360;2023-05-23T02:45:11;95180.22;;;10.54;100.00
3096;BME280;1558;42.700;23.360;2023-05-23T02:47:39;95182.94;;;10.54;100.00
3096;BME280;1558;42.700;23.360;2023-05-23T02:50:08;95179.00;;;10.51;100.00
3096;BME280;1558;42.700;23.360;2023-05-23T02:52:36;95175.84;;;10.49;100.00
3096;BME280;1558;42.700;23.360;2023-05-23T02:55:06;95189.66;;;10.48;100.00
3096;BME280;1558;42.700;23.360;2023-05-23T02:57:34;95174.56;;;10.35;100.00
3096;BME280;1558;42.700;23.360;2023-05-23T03:00:03;95180.88;;;10.39;100.00
3096;BME280;1558;42.700;23.360;2023-05-23T03:02:31;95180.34;;;10.45;100.00
3096;BME280;1558;42.700;23.360;2023-05-23T03:05:00;95175.72;;;10.46;100.00
3096;BME280;1558;42.700;23.360;2023-05-23T03:07:28;95172.78;;;10.39;100.00
3096;BME280;1558;42.700;23.360;2023-05-23T03:09:56;95182.66;;;10.35;100.00
3096;BME280;1558;42.700;23.360;2023-05-23T03:12:25;95172.78;;;10.39;100.00
3096;BME280;1558;42.700;23.360;2023-05-23T03:14:53;95178.19;;;10.39;100.00
3096;BME280;1558;42.700;23.360;2023-05-23T03:17:23;95177.84;;;10.40;100.00
3096;BME280;1558;42.700;23.360;2023-05-23T03:19:52;95187.19;;;10.43;100.00
3096;BME280;1558;42.700;23.360;2023-05-23T03:22:20;95189.06;;;10.42;100.00
3096;BME280;1558;42.700;23.360;2023-05-23T03:24:48;95184.94;;;10.45;100.00
3096;BME280;1558;42.700;23.360;2023-05-23T03:27:16;95185.84;;;10.49;100.00
3096;BME280;1558;42.700;23.360;2023-05-23T03:29:45;95186.53;;;10.46;100.00
3096;BME280;1558;42.700;23.360;2023-05-23T03:32:13;95198.75;;;10.43;100.00
3096;BME280;1558;42.700;23.360;2023-05-23T03:34:42;95193.47;;;10.47;100.00
3096;BME280;1558;42.700;23.360;2023-05-23T03:37:10;95192.56;;;10.43;100.00
3096;BME280;1558;42.700;23.360;2023-05-23T03:39:38;95196.66;;;10.28;100.00
3096;BME280;1558;42.700;23.360;2023-05-23T03:42:06;95206.59;;;10.15;100.00
3096;BME280;1558;42.700;23.360;2023-05-23T03:44:34;95202.53;;;10.09;100.00
3096;BME280;1558;42.700;23.360;2023-05-23T03:47:04;95208.09;;;10.04;100.00
3096;BME280;1558;42.700;23.360;2023-05-23T03:49:32;95206.06;;;10.01;100.00
3096;BME280;1558;42.700;23.360;2023-05-23T03:52:00;95203.31;;;10.10;100.00
3096;BME280;1558;42.700;23.360;2023-05-23T03:54:29;95212.44;;;10.17;100.00
3096;BME280;1558;42.700;23.360;2023-05-23T03:56:57;95214.28;;;10.26;100.00
3096;BME280;1558;42.700;23.360;2023-05-23T03:59:25;95219.94;;;10.33;100.00
3096;BME280;1558;42.700;23.360;2023-05-23T04:01:53;95211.09;;;10.44;100.00
3096;BME280;1558;42.700;23.360;2023-05-23T04:04:25;95214.13;;;10.43;100.00
3096;BME280;1558;42.700;23.360;2023-05-23T04:06:54;95211.31;;;10.39;100.00
3096;BME280;1558;42.700;23.360;2023-05-23T04:09:23;95210.41;;;10.35;100.00
3096;BME280;1558;42.700;23.360;2023-05-23T04:11:52;95200.47;;;10.27;100.00
3096;BME280;1558;42.700;23.360;2023-05-23T04:14:21;95208.03;;;10.34;100.00
3096;BME280;1558;42.700;23.360;2023-05-23T04:16:51;95203.22;;;10.39;100.00
3096;BME280;1558;42.700;23.360;2023-05-23T04:19:19;95206.94;;;10.47;100.00
3096;BME280;1558;42.700;23.360;2023-05-23T04:21:48;95212.94;;;10.52;100.00
3096;BME280;1558;42.700;23.360;2023-05-23T04:24:16;95208.19;;;10.49;100.00
3096;BME280;1558;42.700;23.360;2023-05-23T04:26:44;95211.69;;;10.50;100.00
3096;BME280;1558;42.700;23.360;2023-05-23T04:29:12;95219.44;;;10.51;100.00
3096;BME280;1558;42.700;23.360;2023-05-23T04:31:40;95217.53;;;10.52;100.00
3096;BME280;1558;42.700;23.360;2023-05-23T04:34:11;95226.41;;;10.52;100.00
3096;BME280;1558;42.700;23.360;2023-05-23T04:36:40;95213.72;;;10.53;100.00
3096;BME280;1558;42.700;23.360;2023-05-23T04:39:11;95211.66;;;10.38;100.00
3096;BME280;1558;42.700;23.360;2023-05-23T04:41:40;95218.38;;;10.32;100.00
3096;BME280;1558;42.700;23.360;2023-05-23T04:44:08;95223.09;;;10.35;100.00
3096;BME280;1558;42.700;23.360;2023-05-23T04:46:36;95223.53;;;10.37;100.00
3096;BME280;1558;42.700;23.360;2023-05-23T04:49:08;95233.88;;;10.35;100.00
3096;BME280;1558;42.700;23.360;2023-05-23T04:51:36;95232.41;;;10.37;100.00
3096;BME280;1558;42.700;23.360;2023-05-23T04:54:04;95232.97;;;10.31;100.00
3096;BME280;1558;42.700;23.360;2023-05-23T04:56:34;95227.38;;;10.36;100.00
3096;BME280;1558;42.700;23.360;2023-05-23T04:59:02;95224.63;;;10.56;100.00
3096;BME280;1558;42.700;23.360;2023-05-23T05:01:31;95228.69;;;10.62;100.00
3096;BME280;1558;42.700;23.360;2023-05-23T05:04:00;95232.75;;;10.68;100.00
3096;BME280;1558;42.700;23.360;2023-05-23T05:06:29;95228.16;;;10.69;100.00
3096;BME280;1558;42.700;23.360;2023-05-23T05:08:58;95243.13;;;10.78;100.00
3096;BME280;1558;42.700;23.360;2023-05-23T05:11:26;95233.38;;;10.86;100.00
3096;BME280;1558;42.700;23.360;2023-05-23T05:13:56;95238.41;;;10.87;100.00
3096;BME280;1558;42.700;23.360;2023-05-23T05:16:24;95235.34;;;10.77;100.00
3096;BME280;1558;42.700;23.360;2023-05-23T05:18:52;95245.38;;;10.76;100.00
3096;BME280;1558;42.700;23.360;2023-05-23T05:21:21;95249.22;;;10.87;100.00
3096;BME280;1558;42.700;23.360;2023-05-23T05:23:49;95252.03;;;10.91;100.00
3096;BME280;1558;42.700;23.360;2023-05-23T05:26:18;95253.75;;;10.96;100.00
3096;BME280;1558;42.700;23.360;2023-05-23T05:28:46;95236.75;;;10.95;100.00
3096;BME280;1558;42.700;23.360;2023-05-23T05:31:16;95244.44;;;11.05;100.00
3096;BME280;1558;42.700;23.360;2023-05-23T05:33:44;95240.94;;;11.17;100.00
3096;BME280;1558;42.700;23.360;2023-05-23T05:36:12;95244.31;;;11.14;100.00
3096;BME280;1558;42.700;23.360;2023-05-23T05:38:41;95235.63;;;11.08;100.00
3096;BME280;1558;42.700;23.360;2023-05-23T05:41:09;95238.03;;;11.22;100.00
3096;BME280;1558;42.700;23.360;2023-05-23T05:43:37;95249.81;;;11.29;100.00
3096;BME280;1558;42.700;23.360;2023-05-23T05:46:05;95248.72;;;11.30;100.00
3096;BME280;1558;42.700;23.360;2023-05-23T05:48:34;95244.66;;;11.24;100.00
3096;BME280;1558;42.700;23.360;2023-05-23T05:51:03;95246.13;;;11.22;100.00
3096;BME280;1558;42.700;23.360;2023-05-23T05:53:31;95250.06;;;11.36;100.00
3096;BME280;1558;42.700;23.360;2023-05-23T05:55:59;95253.47;;;11.45;100.00
3096;BME280;1558;42.700;23.360;2023-05-23T05:58:27;95250.97;;;11.52;100.00
3096;BME280;1558;42.700;23.360;2023-05-23T06:00:56;95259.63;;;11.58;100.00
3096;BME280;1558;42.700;23.360;2023-05-23T06:03:24;95256.81;;;11.67;100.00
3096;BME280;1558;42.700;23.360;2023-05-23T06:05:54;95252.53;;;11.53;100.00
3096;BME280;1558;42.700;23.360;2023-05-23T06:08:41;95253.19;;;11.63;100.00
3096;BME280;1558;42.700;23.360;2023-05-23T06:11:09;95250.28;;;11.80;100.00
3096;BME280;1558;42.700;23.360;2023-05-23T06:13:37;95256.03;;;11.90;100.00
3096;BME280;1558;42.700;23.360;2023-05-23T06:16:06;95261.75;;;12.01;100.00
3096;BME280;1558;42.700;23.360;2023-05-23T06:18:34;95256.34;;;12.01;100.00
3096;BME280;1558;42.700;23.360;2023-05-23T06:21:04;95266.94;;;11.94;100.00
3096;BME280;1558;42.700;23.360;2023-05-23T06:23:32;95258.41;;;11.92;100.00
3096;BME280;1558;42.700;23.360;2023-05-23T06:26:00;95263.34;;;12.02;100.00
3096;BME280;1558;42.700;23.360;2023-05-23T06:28:28;95262.53;;;12.01;100.00
3096;BME280;1558;42.700;23.360;2023-05-23T06:30:56;95256.09;;;12.18;100.00
3096;BME280;1558;42.700;23.360;2023-05-23T06:33:24;95251.69;;;12.53;100.00
3096;BME280;1558;42.700;23.360;2023-05-23T06:35:52;95248.06;;;12.61;100.00
3096;BME280;1558;42.700;23.360;2023-05-23T06:38:22;95254.06;;;12.55;100.00
3096;BME280;1558;42.700;23.360;2023-05-23T06:40:50;95264.50;;;12.84;100.00
3096;BME280;1558;42.700;23.360;2023-05-23T06:43:18;95253.91;;;12.63;100.00
3096;BME280;1558;42.700;23.360;2023-05-23T06:45:46;95257.28;;;12.60;100.00
3096;BME280;1558;42.700;23.360;2023-05-23T06:48:15;95252.38;;;12.50;100.00
3096;BME280;1558;42.700;23.360;2023-05-23T06:50:43;95254.38;;;12.53;100.00
3096;BME280;1558;42.700;23.360;2023-05-23T06:53:11;95253.66;;;12.68;100.00
3096;BME280;1558;42.700;23.360;2023-05-23T06:55:40;95248.88;;;12.77;100.00
3096;BME280;1558;42.700;23.360;2023-05-23T06:58:08;95243.59;;;12.41;100.00
3096;BME280;1558;42.700;23.360;2023-05-23T07:00:36;95244.59;;;12.49;100.00
3096;BME280;1558;42.700;23.360;2023-05-23T07:03:07;95249.78;;;12.69;100.00
3096;BME280;1558;42.700;23.360;2023-05-23T07:05:36;95245.56;;;13.12;100.00
3096;BME280;1558;42.700;23.360;2023-05-23T07:08:08;95243.69;;;13.63;100.00
3096;BME280;1558;42.700;23.360;2023-05-23T07:10:40;95237.81;;;14.65;100.00
3096;BME280;1558;42.700;23.360;2023-05-23T07:13:10;95233.56;;;15.28;100.00
3096;BME280;1558;42.700;23.360;2023-05-23T07:15:39;95240.50;;;15.48;100.00
3096;BME280;1558;42.700;23.360;2023-05-23T07:18:07;95241.91;;;15.88;100.00
3096;BME280;1558;42.700;23.360;2023-05-23T07:20:35;95231.97;;;15.50;100.00
3096;BME280;1558;42.700;23.360;2023-05-23T07:23:03;95224.31;;;15.55;100.00
3096;BME280;1558;42.700;23.360;2023-05-23T07:25:31;95223.59;;;15.13;100.00
3096;BME280;1558;42.700;23.360;2023-05-23T07:28:00;95214.25;;;15.14;100.00
3096;BME280;1558;42.700;23.360;2023-05-23T07:30:29;95212.38;;;15.41;100.00
3096;BME280;1558;42.700;23.360;2023-05-23T07:32:59;95223.47;;;15.51;100.00
3096;BME280;1558;42.700;23.360;2023-05-23T07:35:27;95216.97;;;15.82;100.00
3096;BME280;1558;42.700;23.360;2023-05-23T07:37:55;95212.66;;;15.55;100.00
3096;BME280;1558;42.700;23.360;2023-05-23T07:40:24;95212.13;;;15.72;100.00
3096;BME280;1558;42.700;23.360;2023-05-23T07:42:52;95206.97;;;16.19;100.00
3096;BME280;1558;42.700;23.360;2023-05-23T07:45:23;95214.63;;;15.81;100.00
3096;BME280;1558;42.700;23.360;2023-05-23T07:47:51;95210.41;;;16.13;100.00
3096;BME280;1558;42.700;23.360;2023-05-23T07:50:20;95212.97;;;16.95;100.00
3096;BME280;1558;42.700;23.360;2023-05-23T07:52:48;95210.31;;;17.02;100.00
3096;BME280;1558;42.700;23.360;2023-05-23T07:55:17;95211.56;;;16.42;100.00
3096;BME280;1558;42.700;23.360;2023-05-23T07:57:45;95197.75;;;16.57;100.00
3096;BME280;1558;42.700;23.360;2023-05-23T08:00:14;95202.91;;;17.03;100.00
3096;BME280;1558;42.700;23.360;2023-05-23T08:02:44;95201.91;;;17.21;100.00
3096;BME280;1558;42.700;23.360;2023-05-23T08:05:12;95201.50;;;17.16;100.00
3096;BME280;1558;42.700;23.360;2023-05-23T08:07:40;95201.69;;;16.97;100.00
3096;BME280;1558;42.700;23.360;2023-05-23T08:10:08;95204.44;;;16.97;100.00
3096;BME280;1558;42.700;23.360;2023-05-23T08:12:36;95196.72;;;17.06;100.00
3096;BME280;1558;42.700;23.360;2023-05-23T08:15:06;95201.25;;;17.31;100.00
3096;BME280;1558;42.700;23.360;2023-05-23T08:17:35;95195.44;;;17.36;100.00
3096;BME280;1558;42.700;23.360;2023-05-23T08:20:06;95192.31;;;18.47;100.00
3096;BME280;1558;42.700;23.360;2023-05-23T08:22:35;95197.81;;;18.54;100.00
3096;BME280;1558;42.700;23.360;2023-05-23T08:25:04;95197.88;;;18.68;100.00
3096;BME280;1558;42.700;23.360;2023-05-23T08:27:33;95192.97;;;19.65;100.00
3096;BME280;1558;42.700;23.360;2023-05-23T08:30:03;95195.66;;;19.83;100.00
3096;BME280;1558;42.700;23.360;2023-05-23T08:32:34;95186.69;;;21.08;100.00
3096;BME280;1558;42.700;23.360;2023-05-23T08:35:02;95185.75;;;21.32;100.00
3096;BME280;1558;42.700;23.360;2023-05-23T08:37:34;95196.28;;;21.44;100.00
3096;BME280;1558;42.700;23.360;2023-05-23T08:40:03;95188.78;;;21.96;100.00
3096;BME280;1558;42.700;23.360;2023-05-23T08:42:34;95190.13;;;22.55;100.00
3096;BME280;1558;42.700;23.360;2023-05-23T08:45:03;95180.03;;;22.45;100.00
3096;BME280;1558;42.700;23.360;2023-05-23T08:47:34;95186.72;;;22.78;100.00
3096;BME280;1558;42.700;23.360;2023-05-23T08:50:05;95171.88;;;23.02;100.00
3096;BME280;1558;42.700;23.360;2023-05-23T08:52:37;95181.69;;;22.39;100.00
3096;BME280;1558;42.700;23.360;2023-05-23T08:55:09;95183.03;;;22.20;100.00
3096;BME280;1558;42.700;23.360;2023-05-23T08:57:38;95185.03;;;22.20;100.00
3096;BME280;1558;42.700;23.360;2023-05-23T09:00:11;95177.09;;;23.50;100.00
3096;BME280;1558;42.700;23.360;2023-05-23T09:02:42;95179.84;;;23.96;100.00
3096;BME280;1558;42.700;23.360;2023-05-23T09:05:11;95088.91;;;23.53;100.00
3096;BME280;1558;42.700;23.360;2023-05-23T09:07:41;95171.75;;;24.32;100.00
3096;BME280;1558;42.700;23.360;2023-05-23T09:10:11;95167.69;;;23.94;100.00
3096;BME280;1558;42.700;23.360;2023-05-23T09:12:40;95145.38;;;24.11;100.00
3096;BME280;1558;42.700;23.360;2023-05-23T09:15:10;95130.53;;;23.59;100.00
3096;BME280;1558;42.700;23.360;2023-05-23T09:17:39;95102.25;;;24.21;100.00
3096;BME280;1558;42.700;23.360;2023-05-23T09:20:11;95115.91;;;25.71;100.00
3096;BME280;1558;42.700;23.360;2023-05-23T09:22:45;95129.19;;;25.44;95.76
3096;BME280;1558;42.700;23.360;2023-05-23T09:25:14;95122.47;;;25.61;97.78
3096;BME280;1558;42.700;23.360;2023-05-23T09:27:42;95116.22;;;25.89;74.72
3096;BME280;1558;42.700;23.360;2023-05-23T09:30:14;95130.91;;;25.70;73.23
3096;BME280;1558;42.700;23.360;2023-05-23T09:32:56;95131.22;;;26.04;69.62
3096;BME280;1558;42.700;23.360;2023-05-23T09:35:29;95100.34;;;27.05;61.07
3096;BME280;1558;42.700;23.360;2023-05-23T09:37:59;95103.47;;;25.79;53.48
3096;BME280;1558;42.700;23.360;2023-05-23T09:40:31;95125.09;;;26.42;55.39
3096;BME280;1558;42.700;23.360;2023-05-23T09:43:02;95119.13;;;26.72;53.30
3096;BME280;1558;42.700;23.360;2023-05-23T09:45:31;95081.03;;;25.45;52.92
3096;BME280;1558;42.700;23.360;2023-05-23T09:47:59;95120.81;;;26.41;52.06
3096;BME280;1558;42.700;23.360;2023-05-23T09:50:31;95113.09;;;26.61;52.73
3096;BME280;1558;42.700;23.360;2023-05-23T09:53:01;95105.41;;;27.82;48.56
3096;BME280;1558;42.700;23.360;2023-05-23T09:55:29;95113.31;;;27.71;48.30
3096;BME280;1558;42.700;23.360;2023-05-23T09:57:58;95109.44;;;27.05;46.33
3096;BME280;1558;42.700;23.360;2023-05-23T10:00:27;95107.50;;;26.77;46.70
3096;BME280;1558;42.700;23.360;2023-05-23T10:03:04;95103.47;;;26.65;45.29
3096;BME280;1558;42.700;23.360;2023-05-23T10:05:40;95112.38;;;26.44;45.32
3096;BME280;1558;42.700;23.360;2023-05-23T10:08:15;95103.78;;;26.96;44.51
3096;BME280;1558;42.700;23.360;2023-05-23T10:14:01;95098.91;;;27.25;44.17
3096;BME280;1558;42.700;23.360;2023-05-23T10:16:37;95100.75;;;26.78;44.03
3096;BME280;1558;42.700;23.360;2023-05-23T10:19:19;95106.38;;;26.33;42.24
3096;BME280;1558;42.700;23.360;2023-05-23T10:21:50;95095.63;;;26.64;40.88
3096;BME280;1558;42.700;23.360;2023-05-23T10:24:23;95105.19;;;26.47;41.87
3096;BME280;1558;42.700;23.360;2023-05-23T10:26:52;95090.75;;;26.55;42.15
3096;BME280;1558;42.700;23.360;2023-05-23T10:29:21;95052.97;;;25.91;42.01
3096;BME280;1558;42.700;23.360;2023-05-23T10:31:50;95084.53;;;26.64;41.95
3096;BME280;1558;42.700;23.360;2023-05-23T10:34:25;95074.97;;;26.94;41.23
3096;BME280;1558;42.700;23.360;2023-05-23T10:36:59;95086.47;;;27.68;42.07
3096;BME280;1558;42.700;23.360;2023-05-23T10:39:39;95092.56;;;27.75;39.67
3096;BME280;1558;42.700;23.360;2023-05-23T10:42:14;95093.66;;;26.77;40.86
3096;BME280;1558;42.700;23.360;2023-05-23T10:44:44;95076.19;;;26.80;41.52
3096;BME280;1558;42.700;23.360;2023-05-23T10:47:24;95069.13;;;27.17;40.54
3096;BME280;1558;42.700;23.360;2023-05-23T10:49:54;95050.66;;;26.72;38.41
3096;BME280;1558;42.700;23.360;2023-05-23T10:52:23;95087.84;;;26.17;39.21
3096;BME280;1558;42.700;23.360;2023-05-23T10:54:54;95068.34;;;25.47;40.16
3096;BME280;1558;42.700;23.360;2023-05-23T10:57:25;95071.88;;;25.48;40.67
3096;BME280;1558;42.700;23.360;2023-05-23T10:59:54;95066.25;;;25.96;39.78
3096;BME280;1558;42.700;23.360;2023-05-23T11:02:25;95065.91;;;26.52;40.16
3096;BME280;1558;42.700;23.360;2023-05-23T11:05:18;95057.78;;;27.49;39.59
3096;BME280;1558;42.700;23.360;2023-05-23T11:08:06;95061.44;;;27.59;38.25
3096;BME280;1558;42.700;23.360;2023-05-23T11:10:52;95065.75;;;26.84;36.36
3096;BME280;1558;42.700;23.360;2023-05-23T11:13:22;95049.72;;;27.17;38.85
3096;BME280;1558;42.700;23.360;2023-05-23T11:15:50;95049.78;;;27.64;36.44
3096;BME280;1558;42.700;23.360;2023-05-23T11:18:22;95054.06;;;27.05;37.33
3096;BME280;1558;42.700;23.360;2023-05-23T11:20:52;95050.72;;;26.44;38.72
3096;BME280;1558;42.700;23.360;2023-05-23T11:23:21;95048.50;;;27.05;37.85
3096;BME280;1558;42.700;23.360;2023-05-23T11:25:51;95044.75;;;27.12;37.68
3096;BME280;1558;42.700;23.360;2023-05-23T11:28:21;95035.53;;;27.02;38.38
3096;BME280;1558;42.700;23.360;2023-05-23T11:30:49;95053.56;;;28.04;36.11
3096;BME280;1558;42.700;23.360;2023-05-23T11:33:18;95050.25;;;27.84;35.88
3096;BME280;1558;42.700;23.360;2023-05-23T11:35:48;95027.34;;;27.71;35.81
3096;BME280;1558;42.700;23.360;2023-05-23T11:38:17;95041.72;;;27.31;35.83
3096;BME280;1558;42.700;23.360;2023-05-23T11:40:46;95004.94;;;26.43;36.61
3096;BME280;1558;42.700;23.360;2023-05-23T11:43:16;95030.41;;;26.63;36.97
3096;BME280;1558;42.700;23.360;2023-05-23T11:45:45;95029.84;;;26.55;37.92
3096;BME280;1558;42.700;23.360;2023-05-23T11:48:15;95039.84;;;26.78;38.04
3096;BME280;1558;42.700;23.360;2023-05-23T11:50:45;95021.63;;;26.27;38.10
3096;BME280;1558;42.700;23.360;2023-05-23T11:53:14;95031.94;;;25.81;39.45
3096;BME280;1558;42.700;23.360;2023-05-23T11:55:50;95026.53;;;25.62;40.26
3096;BME280;1558;42.700;23.360;2023-05-23T11:58:21;95025.03;;;25.73;39.91
3096;BME280;1558;42.700;23.360;2023-05-23T12:00:57;95020.06;;;25.52;39.90
3096;BME280;1558;42.700;23.360;2023-05-23T12:03:25;95020.84;;;26.26;39.90
3096;BME280;1558;42.700;23.360;2023-05-23T12:05:54;94989.22;;;26.65;37.76
3096;BME280;1558;42.700;23.360;2023-05-23T12:08:22;95014.94;;;26.78;36.47
3096;BME280;1558;42.700;23.360;2023-05-23T12:10:51;95013.75;;;26.79;36.97
3096;BME280;1558;42.700;23.360;2023-05-23T12:13:24;94994.09;;;27.24;36.03
3096;BME280;1558;42.700;23.360;2023-05-23T12:15:54;94995.78;;;27.56;35.47
3096;BME280;1558;42.700;23.360;2023-05-23T12:18:23;94996.41;;;27.38;35.81
3096;BME280;1558;42.700;23.360;2023-05-23T12:20:51;94993.09;;;27.18;36.37
3096;BME280;1558;42.700;23.360;2023-05-23T12:23:20;94984.22;;;25.65;38.62
3096;BME280;1558;42.700;23.360;2023-05-23T12:25:52;94996.28;;;24.94;40.72
3096;BME280;1558;42.700;23.360;2023-05-23T12:28:20;94992.72;;;24.77;40.30
3096;BME280;1558;42.700;23.360;2023-05-23T12:30:50;94987.63;;;24.92;41.10
3096;BME280;1558;42.700;23.360;2023-05-23T12:33:21;94971.00;;;25.56;39.71
3096;BME280;1558;42.700;23.360;2023-05-23T12:35:49;94984.44;;;25.25;37.97
3096;BME280;1558;42.700;23.360;2023-05-23T12:38:17;94983.94;;;24.98;37.11
3096;BME280;1558;42.700;23.360;2023-05-23T12:40:45;94982.19;;;25.04;37.29
3096;BME280;1558;42.700;23.360;2023-05-23T12:43:14;94972.78;;;25.02;36.24
3096;BME280;1558;42.700;23.360;2023-05-23T12:45:42;94977.22;;;24.83;35.83
3096;BME280;1558;42.700;23.360;2023-05-23T12:48:11;94979.88;;;24.86;36.28
3096;BME280;1558;42.700;23.360;2023-05-23T12:50:40;94978.16;;;24.41;36.43
3096;BME280;1558;42.700;23.360;2023-05-23T12:53:08;94969.16;;;23.81;37.76
3096;BME280;1558;42.700;23.360;2023-05-23T12:55:36;94963.34;;;23.76;39.40
3096;BME280;1558;42.700;23.360;2023-05-23T12:58:05;94969.63;;;24.51;38.00
3096;BME280;1558;42.700;23.360;2023-05-23T13:00:33;94966.53;;;24.49;36.39
3096;BME280;1558;42.700;23.360;2023-05-23T13:03:01;94959.53;;;24.80;37.27
3096;BME280;1558;42.700;23.360;2023-05-23T13:05:31;94951.06;;;25.04;35.94
3096;BME280;1558;42.700;23.360;2023-05-23T13:07:59;94955.00;;;24.54;36.53
3096;BME280;1558;42.700;23.360;2023-05-23T13:10:27;94958.22;;;24.33;37.43
3096;BME280;1558;42.700;23.360;2023-05-23T13:12:58;94941.59;;;24.01;38.11
3096;BME280;1558;42.700;23.360;2023-05-23T13:15:28;94954.88;;;25.10;37.61
3096;BME280;1558;42.700;23.360;2023-05-23T13:17:56;94937.06;;;26.51;36.77